sensor_id;sensor_type;location;lat;lon;timestamp;temperature;humidity
69006;SHT31;56061;51.748;19.620;2022-12-29T00:00:14;5.24;76.32
69006;SHT31;56061;51.748;19.620;2022-12-29T00:02:40;5.23;76.24
69006;SHT31;56061;51.748;19.620;2022-12-29T00:05:08;5.21;76.28
69006;SHT31;56061;51.748;19.620;2022-12-29T00:07:35;5.22;76.11
69006;SHT31;56061;51.748;19.620;2022-12-29T00:10:02;5.24;76.04
69006;SHT31;56061;51.748;19.620;2022-12-29T00:12:29;5.26;75.79
69006;SHT31;56061;51.748;19.620;2022-12-29T00:15:15;5.27;75.93
69006;SHT31;56061;51.748;19.620;2022-12-29T00:18:00;5.26;75.96
69006;SHT31;56061;51.748;19.620;2022-12-29T00:20:27;5.24;75.82
69006;SHT31;56061;51.748;19.620;2022-12-29T00:23:12;5.21;75.85
69006;SHT31;56061;51.748;19.620;2022-12-29T00:25:57;5.19;75.74
69006;SHT31;56061;51.748;19.620;2022-12-29T00:28:42;5.16;75.72
69006;SHT31;56061;51.748;19.620;2022-12-29T00:31:28;5.14;75.92
69006;SHT31;56061;51.748;19.620;2022-12-29T00:34:12;5.14;75.78
69006;SHT31;56061;51.748;19.620;2022-12-29T00:36:57;5.15;75.83
69006;SHT31;56061;51.748;19.620;2022-12-29T00:39:24;5.17;75.92
69006;SHT31;56061;51.748;19.620;2022-12-29T00:42:09;5.18;75.75
69006;SHT31;56061;51.748;19.620;2022-12-29T00:45:05;5.18;75.79
69006;SHT31;56061;51.748;19.620;2022-12-29T00:47:32;5.18;75.67
69006;SHT31;56061;51.748;19.620;2022-12-29T00:49:59;5.16;75.63
69006;SHT31;56061;51.748;19.620;2022-12-29T00:52:25;5.16;75.77
69006;SHT31;56061;51.748;19.620;2022-12-29T00:54:52;5.14;75.77
69006;SHT31;56061;51.748;19.620;2022-12-29T00:57:18;5.12;75.85
69006;SHT31;56061;51.748;19.620;2022-12-29T00:59:45;5.10;75.81
69006;SHT31;56061;51.748;19.620;2022-12-29T01:02:11;5.10;75.85
69006;SHT31;56061;51.748;19.620;2022-12-29T01:04:38;5.10;75.94
69006;SHT31;56061;51.748;19.620;2022-12-29T01:07:05;5.11;75.86
69006;SHT31;56061;51.748;19.620;2022-12-29T01:09:32;5.13;75.81
69006;SHT31;56061;51.748;19.620;2022-12-29T01:12:17;5.15;75.75
69006;SHT31;56061;51.748;19.620;2022-12-29T01:15:04;5.18;75.77
69006;SHT31;56061;51.748;19.620;2022-12-29T01:17:32;5.19;75.88
69006;SHT31;56061;51.748;19.620;2022-12-29T01:20:00;5.18;75.76
69006;SHT31;56061;51.748;19.620;2022-12-29T01:22:27;5.17;75.80
69006;SHT31;56061;51.748;19.620;2022-12-29T01:24:53;5.15;75.90
69006;SHT31;56061;51.748;19.620;2022-12-29T01:27:20;5.15;75.91
69006;SHT31;56061;51.748;19.620;2022-12-29T01:29:46;5.16;75.93
69006;SHT31;56061;51.748;19.620;2022-12-29T01:32:13;5.14;75.90
69006;SHT31;56061;51.748;19.620;2022-12-29T01:34:39;5.13;75.87
69006;SHT31;56061;51.748;19.620;2022-12-29T01:37:06;5.12;75.93
69006;SHT31;56061;51.748;19.620;2022-12-29T01:39:32;5.13;75.92
69006;SHT31;56061;51.748;19.620;2022-12-29T01:41:59;5.14;75.94
69006;SHT31;56061;51.748;19.620;2022-12-29T01:45:03;5.15;75.91
69006;SHT31;56061;51.748;19.620;2022-12-29T01:47:31;5.17;75.89
69006;SHT31;56061;51.748;19.620;2022-12-29T01:50:09;5.16;75.87
69006;SHT31;56061;51.748;19.620;2022-12-29T01:52:47;5.17;75.89
69006;SHT31;56061;51.748;19.620;2022-12-29T01:55:28;5.16;75.86
69006;SHT31;56061;51.748;19.620;2022-12-29T01:58:01;5.15;75.94
69006;SHT31;56061;51.748;19.620;2022-12-29T02:00:32;5.14;75.85
69006;SHT31;56061;51.748;19.620;2022-12-29T02:02:59;5.15;75.94
69006;SHT31;56061;51.748;19.620;2022-12-29T02:08:02;5.14;75.98
69006;SHT31;56061;51.748;19.620;2022-12-29T02:13:52;5.21;76.02
69006;SHT31;56061;51.748;19.620;2022-12-29T02:31:52;5.24;75.69
69006;SHT31;56061;51.748;19.620;2022-12-29T02:35:10;5.19;75.56
69006;SHT31;56061;51.748;19.620;2022-12-29T02:38:19;5.15;75.62
69006;SHT31;56061;51.748;19.620;2022-12-29T02:41:29;5.12;75.65
69006;SHT31;56061;51.748;19.620;2022-12-29T02:47:00;5.11;75.70
69006;SHT31;56061;51.748;19.620;2022-12-29T02:49:57;5.11;75.73
69006;SHT31;56061;51.748;19.620;2022-12-29T02:52:42;5.10;75.73
69006;SHT31;56061;51.748;19.620;2022-12-29T02:55:17;5.09;75.63
69006;SHT31;56061;51.748;19.620;2022-12-29T02:57:44;5.08;75.71
69006;SHT31;56061;51.748;19.620;2022-12-29T03:00:12;5.06;75.73
69006;SHT31;56061;51.748;19.620;2022-12-29T03:08:49;5.02;75.79
69006;SHT31;56061;51.748;19.620;2022-12-29T03:11:49;5.01;75.80
69006;SHT31;56061;51.748;19.620;2022-12-29T03:14:48;5.01;75.71
69006;SHT31;56061;51.748;19.620;2022-12-29T03:20:41;5.01;75.84
69006;SHT31;56061;51.748;19.620;2022-12-29T03:23:12;5.02;75.83
69006;SHT31;56061;51.748;19.620;2022-12-29T03:25:41;5.03;75.78
69006;SHT31;56061;51.748;19.620;2022-12-29T03:28:23;5.02;75.71
69006;SHT31;56061;51.748;19.620;2022-12-29T03:31:03;5.00;75.68
69006;SHT31;56061;51.748;19.620;2022-12-29T03:33:34;4.99;75.45
69006;SHT31;56061;51.748;19.620;2022-12-29T03:36:04;4.99;75.58
69006;SHT31;56061;51.748;19.620;2022-12-29T03:38:41;4.99;75.58
69006;SHT31;56061;51.748;19.620;2022-12-29T03:41:16;5.00;75.66
69006;SHT31;56061;51.748;19.620;2022-12-29T03:43:51;5.00;75.67
69006;SHT31;56061;51.748;19.620;2022-12-29T03:46:18;5.01;75.70
69006;SHT31;56061;51.748;19.620;2022-12-29T03:48:44;5.02;75.61
69006;SHT31;56061;51.748;19.620;2022-12-29T03:51:11;5.05;75.56
69006;SHT31;56061;51.748;19.620;2022-12-29T03:53:37;5.07;75.53
69006;SHT31;56061;51.748;19.620;2022-12-29T03:56:05;5.11;75.39
69006;SHT31;56061;51.748;19.620;2022-12-29T03:58:32;5.13;75.35
69006;SHT31;56061;51.748;19.620;2022-12-29T04:00:59;5.13;75.32
69006;SHT31;56061;51.748;19.620;2022-12-29T04:03:26;5.13;75.29
69006;SHT31;56061;51.748;19.620;2022-12-29T04:05:53;5.12;75.32
69006;SHT31;56061;51.748;19.620;2022-12-29T04:08:19;5.11;75.24
69006;SHT31;56061;51.748;19.620;2022-12-29T04:10:45;5.11;75.22
69006;SHT31;56061;51.748;19.620;2022-12-29T04:13:15;5.10;75.26
69006;SHT31;56061;51.748;19.620;2022-12-29T04:15:43;5.09;75.31
69006;SHT31;56061;51.748;19.620;2022-12-29T04:18:11;5.09;75.32
69006;SHT31;56061;51.748;19.620;2022-12-29T04:20:39;5.09;75.40
69006;SHT31;56061;51.748;19.620;2022-12-29T04:23:25;5.12;75.40
69006;SHT31;56061;51.748;19.620;2022-12-29T04:25:59;5.13;75.31
69006;SHT31;56061;51.748;19.620;2022-12-29T04:28:27;5.15;75.25
69006;SHT31;56061;51.748;19.620;2022-12-29T04:30:54;5.17;75.24
69006;SHT31;56061;51.748;19.620;2022-12-29T04:33:21;5.18;75.13
69006;SHT31;56061;51.748;19.620;2022-12-29T04:35:48;5.17;75.13
69006;SHT31;56061;51.748;19.620;2022-12-29T04:38:15;5.18;75.12
69006;SHT31;56061;51.748;19.620;2022-12-29T04:40:44;5.18;74.99
69006;SHT31;56061;51.748;19.620;2022-12-29T04:43:10;5.18;75.07
69006;SHT31;56061;51.748;19.620;2022-12-29T04:45:38;5.20;74.95
69006;SHT31;56061;51.748;19.620;2022-12-29T04:48:12;5.21;74.95
69006;SHT31;56061;51.748;19.620;2022-12-29T04:50:40;5.24;74.99
69006;SHT31;56061;51.748;19.620;2022-12-29T04:53:07;5.28;74.94
69006;SHT31;56061;51.748;19.620;2022-12-29T04:55:34;5.30;74.83
69006;SHT31;56061;51.748;19.620;2022-12-29T04:58:01;5.33;74.87
69006;SHT31;56061;51.748;19.620;2022-12-29T05:00:27;5.34;74.67
69006;SHT31;56061;51.748;19.620;2022-12-29T05:02:54;5.35;74.66
69006;SHT31;56061;51.748;19.620;2022-12-29T05:05:21;5.35;74.54
69006;SHT31;56061;51.748;19.620;2022-12-29T05:07:47;5.35;74.57
69006;SHT31;56061;51.748;19.620;2022-12-29T05:10:14;5.36;74.59
69006;SHT31;56061;51.748;19.620;2022-12-29T05:12:40;5.37;74.59
69006;SHT31;56061;51.748;19.620;2022-12-29T05:15:08;5.39;74.56
69006;SHT31;56061;51.748;19.620;2022-12-29T05:20:40;5.45;74.21
69006;SHT31;56061;51.748;19.620;2022-12-29T05:23:07;5.47;74.20
69006;SHT31;56061;51.748;19.620;2022-12-29T05:25:34;5.47;74.15
69006;SHT31;56061;51.748;19.620;2022-12-29T05:28:01;5.46;74.02
69006;SHT31;56061;51.748;19.620;2022-12-29T05:30:27;5.44;74.11
69006;SHT31;56061;51.748;19.620;2022-12-29T05:32:54;5.41;74.17
69006;SHT31;56061;51.748;19.620;2022-12-29T05:35:21;5.38;74.24
69006;SHT31;56061;51.748;19.620;2022-12-29T05:37:48;5.35;74.33
69006;SHT31;56061;51.748;19.620;2022-12-29T05:40:14;5.35;74.36
69006;SHT31;56061;51.748;19.620;2022-12-29T05:42:42;5.34;74.30
69006;SHT31;56061;51.748;19.620;2022-12-29T05:45:09;5.33;74.35
69006;SHT31;56061;51.748;19.620;2022-12-29T05:47:35;5.36;74.43
69006;SHT31;56061;51.748;19.620;2022-12-29T05:50:02;5.38;74.50
69006;SHT31;56061;51.748;19.620;2022-12-29T05:52:42;5.40;74.45
69006;SHT31;56061;51.748;19.620;2022-12-29T05:55:09;5.45;74.51
69006;SHT31;56061;51.748;19.620;2022-12-29T05:57:37;5.46;74.34
69006;SHT31;56061;51.748;19.620;2022-12-29T06:00:04;5.47;74.26
69006;SHT31;56061;51.748;19.620;2022-12-29T06:02:32;5.47;74.14
69006;SHT31;56061;51.748;19.620;2022-12-29T06:04:59;5.46;74.14
69006;SHT31;56061;51.748;19.620;2022-12-29T06:07:27;5.44;74.08
69006;SHT31;56061;51.748;19.620;2022-12-29T06:09:54;5.44;74.08
69006;SHT31;56061;51.748;19.620;2022-12-29T06:12:21;5.42;73.95
69006;SHT31;56061;51.748;19.620;2022-12-29T06:14:48;5.42;73.92
69006;SHT31;56061;51.748;19.620;2022-12-29T06:17:15;5.42;74.05
69006;SHT31;56061;51.748;19.620;2022-12-29T06:19:42;5.43;73.91
69006;SHT31;56061;51.748;19.620;2022-12-29T06:22:10;5.45;73.94
69006;SHT31;56061;51.748;19.620;2022-12-29T06:24:38;5.48;73.98
69006;SHT31;56061;51.748;19.620;2022-12-29T06:27:05;5.51;73.90
69006;SHT31;56061;51.748;19.620;2022-12-29T06:29:32;5.55;73.85
69006;SHT31;56061;51.748;19.620;2022-12-29T06:31:59;5.55;73.86
69006;SHT31;56061;51.748;19.620;2022-12-29T06:34:26;5.57;73.79
69006;SHT31;56061;51.748;19.620;2022-12-29T06:36:52;5.57;73.71
69006;SHT31;56061;51.748;19.620;2022-12-29T06:39:19;5.57;73.79
69006;SHT31;56061;51.748;19.620;2022-12-29T06:41:46;5.55;73.65
69006;SHT31;56061;51.748;19.620;2022-12-29T06:44:13;5.52;73.67
69006;SHT31;56061;51.748;19.620;2022-12-29T06:46:39;5.50;73.75
69006;SHT31;56061;51.748;19.620;2022-12-29T06:49:06;5.46;73.80
69006;SHT31;56061;51.748;19.620;2022-12-29T06:51:33;5.43;73.77
69006;SHT31;56061;51.748;19.620;2022-12-29T06:53:59;5.40;73.76
69006;SHT31;56061;51.748;19.620;2022-12-29T06:56:26;5.38;73.82
69006;SHT31;56061;51.748;19.620;2022-12-29T06:58:53;5.38;73.93
69006;SHT31;56061;51.748;19.620;2022-12-29T07:01:19;5.40;73.96
69006;SHT31;56061;51.748;19.620;2022-12-29T07:03:46;5.45;73.97
69006;SHT31;56061;51.748;19.620;2022-12-29T07:06:13;5.47;73.83
69006;SHT31;56061;51.748;19.620;2022-12-29T07:08:40;5.50;73.65
69006;SHT31;56061;51.748;19.620;2022-12-29T07:11:06;5.54;73.58
69006;SHT31;56061;51.748;19.620;2022-12-29T07:13:33;5.56;73.46
69006;SHT31;56061;51.748;19.620;2022-12-29T07:16:04;5.58;73.30
69006;SHT31;56061;51.748;19.620;2022-12-29T07:18:35;5.60;73.13
69006;SHT31;56061;51.748;19.620;2022-12-29T07:21:02;5.61;73.06
69006;SHT31;56061;51.748;19.620;2022-12-29T07:23:29;5.63;73.04
69006;SHT31;56061;51.748;19.620;2022-12-29T07:26:03;5.63;73.05
69006;SHT31;56061;51.748;19.620;2022-12-29T07:28:33;5.65;73.04
69006;SHT31;56061;51.748;19.620;2022-12-29T07:31:01;5.67;72.81
69006;SHT31;56061;51.748;19.620;2022-12-29T07:33:28;5.71;72.72
69006;SHT31;56061;51.748;19.620;2022-12-29T07:35:56;5.75;72.67
69006;SHT31;56061;51.748;19.620;2022-12-29T07:38:22;5.78;72.64
69006;SHT31;56061;51.748;19.620;2022-12-29T07:40:49;5.80;72.43
69006;SHT31;56061;51.748;19.620;2022-12-29T07:43:17;5.80;72.55
69006;SHT31;56061;51.748;19.620;2022-12-29T07:45:43;5.82;72.70
69006;SHT31;56061;51.748;19.620;2022-12-29T07:48:10;5.82;72.52
69006;SHT31;56061;51.748;19.620;2022-12-29T07:50:37;5.84;72.59
69006;SHT31;56061;51.748;19.620;2022-12-29T07:53:04;5.85;72.68
69006;SHT31;56061;51.748;19.620;2022-12-29T07:55:30;5.87;72.62
69006;SHT31;56061;51.748;19.620;2022-12-29T07:57:57;5.91;72.59
69006;SHT31;56061;51.748;19.620;2022-12-29T08:00:24;5.93;72.26
69006;SHT31;56061;51.748;19.620;2022-12-29T08:02:51;5.96;72.28
69006;SHT31;56061;51.748;19.620;2022-12-29T08:05:17;6.00;72.35
69006;SHT31;56061;51.748;19.620;2022-12-29T08:07:45;6.03;72.35
69006;SHT31;56061;51.748;19.620;2022-12-29T08:10:13;6.06;72.40
69006;SHT31;56061;51.748;19.620;2022-12-29T08:12:41;6.10;72.39
69006;SHT31;56061;51.748;19.620;2022-12-29T08:15:09;6.12;72.25
69006;SHT31;56061;51.748;19.620;2022-12-29T08:17:38;6.16;72.25
69006;SHT31;56061;51.748;19.620;2022-12-29T08:20:04;6.19;72.28
69006;SHT31;56061;51.748;19.620;2022-12-29T08:22:32;6.23;72.40
69006;SHT31;56061;51.748;19.620;2022-12-29T08:24:58;6.27;72.32
69006;SHT31;56061;51.748;19.620;2022-12-29T08:27:25;6.30;72.35
69006;SHT31;56061;51.748;19.620;2022-12-29T08:29:52;6.32;71.93
69006;SHT31;56061;51.748;19.620;2022-12-29T08:32:19;6.35;72.07
69006;SHT31;56061;51.748;19.620;2022-12-29T08:34:45;6.40;72.01
69006;SHT31;56061;51.748;19.620;2022-12-29T08:37:12;6.45;72.14
69006;SHT31;56061;51.748;19.620;2022-12-29T08:39:38;6.51;72.11
69006;SHT31;56061;51.748;19.620;2022-12-29T08:42:05;6.56;71.78
69006;SHT31;56061;51.748;19.620;2022-12-29T08:44:32;6.59;71.65
69006;SHT31;56061;51.748;19.620;2022-12-29T08:46:59;6.63;71.42
69006;SHT31;56061;51.748;19.620;2022-12-29T08:49:25;6.67;71.65
69006;SHT31;56061;51.748;19.620;2022-12-29T08:51:52;6.71;71.38
69006;SHT31;56061;51.748;19.620;2022-12-29T08:54:18;6.73;71.36
69006;SHT31;56061;51.748;19.620;2022-12-29T08:56:45;6.76;71.32
69006;SHT31;56061;51.748;19.620;2022-12-29T08:59:11;6.78;71.39
69006;SHT31;56061;51.748;19.620;2022-12-29T09:01:38;6.81;71.29
69006;SHT31;56061;51.748;19.620;2022-12-29T09:04:07;6.82;70.85
69006;SHT31;56061;51.748;19.620;2022-12-29T09:06:44;6.85;71.18
69006;SHT31;56061;51.748;19.620;2022-12-29T09:09:11;6.91;71.15
69006;SHT31;56061;51.748;19.620;2022-12-29T09:11:38;6.98;71.20
69006;SHT31;56061;51.748;19.620;2022-12-29T09:14:05;7.02;71.09
69006;SHT31;56061;51.748;19.620;2022-12-29T09:16:31;7.06;70.67
69006;SHT31;56061;51.748;19.620;2022-12-29T09:18:59;7.08;70.63
69006;SHT31;56061;51.748;19.620;2022-12-29T09:21:26;7.09;70.46
69006;SHT31;56061;51.748;19.620;2022-12-29T09:23:52;7.11;70.48
69006;SHT31;56061;51.748;19.620;2022-12-29T09:26:19;7.12;70.13
69006;SHT31;56061;51.748;19.620;2022-12-29T09:28:45;7.13;70.08
69006;SHT31;56061;51.748;19.620;2022-12-29T09:31:13;7.14;70.28
69006;SHT31;56061;51.748;19.620;2022-12-29T09:33:42;7.16;70.26
69006;SHT31;56061;51.748;19.620;2022-12-29T09:36:09;7.18;70.00
69006;SHT31;56061;51.748;19.620;2022-12-29T09:38:36;7.20;69.87
69006;SHT31;56061;51.748;19.620;2022-12-29T09:41:05;7.25;69.78
69006;SHT31;56061;51.748;19.620;2022-12-29T09:46:49;7.39;69.19
69006;SHT31;56061;51.748;19.620;2022-12-29T09:49:29;7.43;69.34
69006;SHT31;56061;51.748;19.620;2022-12-29T09:52:20;7.46;69.02
69006;SHT31;56061;51.748;19.620;2022-12-29T09:57:54;7.54;69.36
69006;SHT31;56061;51.748;19.620;2022-12-29T10:00:37;7.59;69.30
69006;SHT31;56061;51.748;19.620;2022-12-29T10:03:21;7.65;69.17
69006;SHT31;56061;51.748;19.620;2022-12-29T10:05:55;7.65;68.87
69006;SHT31;56061;51.748;19.620;2022-12-29T10:14:53;7.75;69.20
69006;SHT31;56061;51.748;19.620;2022-12-29T10:17:41;7.81;69.04
69006;SHT31;56061;51.748;19.620;2022-12-29T10:20:26;7.90;68.92
69006;SHT31;56061;51.748;19.620;2022-12-29T10:23:19;7.98;69.01
69006;SHT31;56061;51.748;19.620;2022-12-29T10:25:53;8.06;68.72
69006;SHT31;56061;51.748;19.620;2022-12-29T10:28:24;8.15;68.56
69006;SHT31;56061;51.748;19.620;2022-12-29T10:31:03;8.24;68.60
69006;SHT31;56061;51.748;19.620;2022-12-29T10:33:41;8.32;68.57
69006;SHT31;56061;51.748;19.620;2022-12-29T10:36:10;8.40;68.37
69006;SHT31;56061;51.748;19.620;2022-12-29T10:45:00;8.52;67.52
69006;SHT31;56061;51.748;19.620;2022-12-29T10:47:28;8.53;67.55
69006;SHT31;56061;51.748;19.620;2022-12-29T10:50:00;8.55;67.37
69006;SHT31;56061;51.748;19.620;2022-12-29T10:52:29;8.56;67.36
69006;SHT31;56061;51.748;19.620;2022-12-29T10:54:59;8.56;67.11
69006;SHT31;56061;51.748;19.620;2022-12-29T10:57:37;8.56;66.96
69006;SHT31;56061;51.748;19.620;2022-12-29T11:00:14;8.57;67.41
69006;SHT31;56061;51.748;19.620;2022-12-29T11:02:53;8.61;67.25
69006;SHT31;56061;51.748;19.620;2022-12-29T11:05:55;8.66;67.36
69006;SHT31;56061;51.748;19.620;2022-12-29T11:08:33;8.70;67.37
69006;SHT31;56061;51.748;19.620;2022-12-29T11:11:08;8.75;67.18
69006;SHT31;56061;51.748;19.620;2022-12-29T11:13:49;8.81;67.19
69006;SHT31;56061;51.748;19.620;2022-12-29T11:16:30;8.86;66.82
69006;SHT31;56061;51.748;19.620;2022-12-29T11:19:00;8.89;67.06
69006;SHT31;56061;51.748;19.620;2022-12-29T11:24:27;8.91;66.82
69006;SHT31;56061;51.748;19.620;2022-12-29T11:27:00;8.94;66.75
69006;SHT31;56061;51.748;19.620;2022-12-29T11:29:42;8.98;66.73
69006;SHT31;56061;51.748;19.620;2022-12-29T11:32:24;9.04;66.56
69006;SHT31;56061;51.748;19.620;2022-12-29T11:34:55;9.09;66.41
69006;SHT31;56061;51.748;19.620;2022-12-29T11:37:27;9.12;66.23
69006;SHT31;56061;51.748;19.620;2022-12-29T11:40:14;9.14;66.45
69006;SHT31;56061;51.748;19.620;2022-12-29T11:42:47;9.15;66.54
69006;SHT31;56061;51.748;19.620;2022-12-29T11:45:24;9.17;66.28
69006;SHT31;56061;51.748;19.620;2022-12-29T11:47:57;9.19;66.38
69006;SHT31;56061;51.748;19.620;2022-12-29T11:51:04;9.21;66.47
69006;SHT31;56061;51.748;19.620;2022-12-29T11:56:12;9.24;66.36
69006;SHT31;56061;51.748;19.620;2022-12-29T11:58:43;9.24;66.54
69006;SHT31;56061;51.748;19.620;2022-12-29T12:01:13;9.26;66.80
69006;SHT31;56061;51.748;19.620;2022-12-29T12:06:34;9.26;66.33
69006;SHT31;56061;51.748;19.620;2022-12-29T12:09:23;9.26;66.88
69006;SHT31;56061;51.748;19.620;2022-12-29T12:11:57;9.26;66.79
69006;SHT31;56061;51.748;19.620;2022-12-29T12:14:53;9.28;66.81
69006;SHT31;56061;51.748;19.620;2022-12-29T12:17:47;9.28;66.65
69006;SHT31;56061;51.748;19.620;2022-12-29T12:20:28;9.27;66.66
69006;SHT31;56061;51.748;19.620;2022-12-29T12:26:11;9.25;66.62
69006;SHT31;56061;51.748;19.620;2022-12-29T12:28:48;9.25;66.73
69006;SHT31;56061;51.748;19.620;2022-12-29T12:34:26;9.25;66.55
69006;SHT31;56061;51.748;19.620;2022-12-29T12:37:09;9.26;66.53
69006;SHT31;56061;51.748;19.620;2022-12-29T12:42:58;9.28;66.49
69006;SHT31;56061;51.748;19.620;2022-12-29T12:52:01;9.29;66.68
69006;SHT31;56061;51.748;19.620;2022-12-29T12:58:04;9.30;66.73
69006;SHT31;56061;51.748;19.620;2022-12-29T13:01:11;9.30;66.81
69006;SHT31;56061;51.748;19.620;2022-12-29T13:04:00;9.32;66.85
69006;SHT31;56061;51.748;19.620;2022-12-29T13:13:27;9.34;66.88
69006;SHT31;56061;51.748;19.620;2022-12-29T13:25:34;9.44;66.92
69006;SHT31;56061;51.748;19.620;2022-12-29T13:28:33;9.44;67.08
69006;SHT31;56061;51.748;19.620;2022-12-29T13:31:26;9.45;67.08
69006;SHT31;56061;51.748;19.620;2022-12-29T13:37:28;9.44;67.12
69006;SHT31;56061;51.748;19.620;2022-12-29T13:40:03;9.42;67.33
69006;SHT31;56061;51.748;19.620;2022-12-29T13:42:41;9.40;67.48
69006;SHT31;56061;51.748;19.620;2022-12-29T13:45:31;9.40;67.68
69006;SHT31;56061;51.748;19.620;2022-12-29T13:50:43;9.39;67.68
69006;SHT31;56061;51.748;19.620;2022-12-29T13:53:27;9.38;67.74
69006;SHT31;56061;51.748;19.620;2022-12-29T13:56:15;9.36;67.97
69006;SHT31;56061;51.748;19.620;2022-12-29T13:59:11;9.36;67.98
69006;SHT31;56061;51.748;19.620;2022-12-29T14:01:57;9.34;68.14
69006;SHT31;56061;51.748;19.620;2022-12-29T14:04:31;9.31;68.09
69006;SHT31;56061;51.748;19.620;2022-12-29T14:07:02;9.29;68.08
69006;SHT31;56061;51.748;19.620;2022-12-29T14:09:45;9.28;68.24
69006;SHT31;56061;51.748;19.620;2022-12-29T14:12:28;9.24;68.24
69006;SHT31;56061;51.748;19.620;2022-12-29T14:17:37;9.23;68.46
69006;SHT31;56061;51.748;19.620;2022-12-29T14:20:16;9.23;68.61
69006;SHT31;56061;51.748;19.620;2022-12-29T14:25:52;9.23;68.59
69006;SHT31;56061;51.748;19.620;2022-12-29T14:28:34;9.21;68.55
69006;SHT31;56061;51.748;19.620;2022-12-29T14:36:37;9.09;68.75
69006;SHT31;56061;51.748;19.620;2022-12-29T14:47:19;8.84;69.34
69006;SHT31;56061;51.748;19.620;2022-12-29T14:50:05;8.79;69.48
69006;SHT31;56061;51.748;19.620;2022-12-29T14:52:54;8.75;69.68
69006;SHT31;56061;51.748;19.620;2022-12-29T14:55:30;8.71;69.84
69006;SHT31;56061;51.748;19.620;2022-12-29T14:58:06;8.67;69.98
69006;SHT31;56061;51.748;19.620;2022-12-29T15:03:59;8.65;70.20
69006;SHT31;56061;51.748;19.620;2022-12-29T15:06:39;8.66;70.28
69006;SHT31;56061;51.748;19.620;2022-12-29T15:12:23;8.68;70.45
69006;SHT31;56061;51.748;19.620;2022-12-29T15:17:51;8.68;70.54
69006;SHT31;56061;51.748;19.620;2022-12-29T15:20:28;8.68;70.58
69006;SHT31;56061;51.748;19.620;2022-12-29T15:22:58;8.66;70.60
69006;SHT31;56061;51.748;19.620;2022-12-29T15:25:29;8.65;70.69
69006;SHT31;56061;51.748;19.620;2022-12-29T15:28:00;8.64;70.72
69006;SHT31;56061;51.748;19.620;2022-12-29T15:30:30;8.64;70.77
69006;SHT31;56061;51.748;19.620;2022-12-29T15:32:57;8.64;70.69
69006;SHT31;56061;51.748;19.620;2022-12-29T15:35:34;8.64;70.77
69006;SHT31;56061;51.748;19.620;2022-12-29T15:38:19;8.66;70.67
69006;SHT31;56061;51.748;19.620;2022-12-29T15:41:00;8.69;70.69
69006;SHT31;56061;51.748;19.620;2022-12-29T15:43:54;8.72;70.74
69006;SHT31;56061;51.748;19.620;2022-12-29T15:46:43;8.73;70.77
69006;SHT31;56061;51.748;19.620;2022-12-29T15:49:11;8.74;70.79
69006;SHT31;56061;51.748;19.620;2022-12-29T15:51:41;8.75;70.83
69006;SHT31;56061;51.748;19.620;2022-12-29T15:54:19;8.73;70.82
69006;SHT31;56061;51.748;19.620;2022-12-29T15:56:49;8.72;70.71
69006;SHT31;56061;51.748;19.620;2022-12-29T15:59:26;8.70;70.70
69006;SHT31;56061;51.748;19.620;2022-12-29T16:01:57;8.69;70.63
69006;SHT31;56061;51.748;19.620;2022-12-29T16:04:32;8.68;70.67
69006;SHT31;56061;51.748;19.620;2022-12-29T16:07:29;8.66;70.73
69006;SHT31;56061;51.748;19.620;2022-12-29T16:10:21;8.65;70.60
69006;SHT31;56061;51.748;19.620;2022-12-29T16:16:08;8.66;70.59
69006;SHT31;56061;51.748;19.620;2022-12-29T16:18:44;8.67;70.38
69006;SHT31;56061;51.748;19.620;2022-12-29T16:21:23;8.68;70.56
69006;SHT31;56061;51.748;19.620;2022-12-29T16:23:55;8.70;70.59
69006;SHT31;56061;51.748;19.620;2022-12-29T16:26:27;8.69;70.54
69006;SHT31;56061;51.748;19.620;2022-12-29T16:28:58;8.68;70.61
69006;SHT31;56061;51.748;19.620;2022-12-29T16:31:35;8.66;70.55
69006;SHT31;56061;51.748;19.620;2022-12-29T16:34:22;8.64;70.59
69006;SHT31;56061;51.748;19.620;2022-12-29T16:39:38;8.59;70.68
69006;SHT31;56061;51.748;19.620;2022-12-29T16:48:09;8.50;70.89
69006;SHT31;56061;51.748;19.620;2022-12-29T16:50:33;8.48;70.80
69006;SHT31;56061;51.748;19.620;2022-12-29T16:53:04;8.47;70.78
69006;SHT31;56061;51.748;19.620;2022-12-29T16:55:50;8.49;70.95
69006;SHT31;56061;51.748;19.620;2022-12-29T16:58:20;8.51;70.97
69006;SHT31;56061;51.748;19.620;2022-12-29T17:00:54;8.51;70.85
69006;SHT31;56061;51.748;19.620;2022-12-29T17:03:23;8.51;70.88
69006;SHT31;56061;51.748;19.620;2022-12-29T17:06:00;8.51;70.87
69006;SHT31;56061;51.748;19.620;2022-12-29T17:08:27;8.48;70.77
69006;SHT31;56061;51.748;19.620;2022-12-29T17:10:54;8.46;70.95
69006;SHT31;56061;51.748;19.620;2022-12-29T17:13:41;8.46;70.91
69006;SHT31;56061;51.748;19.620;2022-12-29T17:16:09;8.44;70.98
69006;SHT31;56061;51.748;19.620;2022-12-29T17:18:37;8.42;71.01
69006;SHT31;56061;51.748;19.620;2022-12-29T17:21:04;8.39;70.97
69006;SHT31;56061;51.748;19.620;2022-12-29T17:23:31;8.38;71.00
69006;SHT31;56061;51.748;19.620;2022-12-29T17:25:59;8.36;71.01
69006;SHT31;56061;51.748;19.620;2022-12-29T17:28:27;8.34;70.99
69006;SHT31;56061;51.748;19.620;2022-12-29T17:31:01;8.32;71.05
69006;SHT31;56061;51.748;19.620;2022-12-29T17:33:35;8.31;71.10
69006;SHT31;56061;51.748;19.620;2022-12-29T17:36:07;8.29;71.16
69006;SHT31;56061;51.748;19.620;2022-12-29T17:38:35;8.28;71.20
69006;SHT31;56061;51.748;19.620;2022-12-29T17:41:02;8.25;71.09
69006;SHT31;56061;51.748;19.620;2022-12-29T17:43:29;8.22;71.18
69006;SHT31;56061;51.748;19.620;2022-12-29T17:46:02;8.18;71.33
69006;SHT31;56061;51.748;19.620;2022-12-29T17:48:33;8.15;71.40
69006;SHT31;56061;51.748;19.620;2022-12-29T17:51:00;8.13;71.46
69006;SHT31;56061;51.748;19.620;2022-12-29T17:53:27;8.10;71.51
69006;SHT31;56061;51.748;19.620;2022-12-29T17:55:55;8.08;71.63
69006;SHT31;56061;51.748;19.620;2022-12-29T17:58:23;8.07;71.70
69006;SHT31;56061;51.748;19.620;2022-12-29T18:00:54;8.05;71.72
69006;SHT31;56061;51.748;19.620;2022-12-29T18:03:27;8.04;71.78
69006;SHT31;56061;51.748;19.620;2022-12-29T18:05:58;8.03;71.82
69006;SHT31;56061;51.748;19.620;2022-12-29T18:08:25;8.03;71.90
69006;SHT31;56061;51.748;19.620;2022-12-29T18:10:55;8.04;71.93
69006;SHT31;56061;51.748;19.620;2022-12-29T18:13:23;8.07;71.94
69006;SHT31;56061;51.748;19.620;2022-12-29T18:16:09;8.10;71.96
69006;SHT31;56061;51.748;19.620;2022-12-29T18:18:37;8.10;71.87
69006;SHT31;56061;51.748;19.620;2022-12-29T18:21:04;8.10;71.93
69006;SHT31;56061;51.748;19.620;2022-12-29T18:23:31;8.10;71.96
69006;SHT31;56061;51.748;19.620;2022-12-29T18:26:02;8.09;72.03
69006;SHT31;56061;51.748;19.620;2022-12-29T18:28:40;8.07;72.07
69006;SHT31;56061;51.748;19.620;2022-12-29T18:31:13;8.07;72.10